Time;durP1;ratioP1;P1;durP2;ratioP2;P2;SDS_P1;SDS_P2;PMS_P1;PMS_P2;Temp;Humidity;BMP_temperature;BMP_pressure;BME280_temperature;BME280_humidity;BME280_pressure;Samples;Min_cycle;Max_cycle;Signal;HPM_P1;HPM_P2
2022/12/13 00:01:51;;;;;;;1.60;0.73;;;22.90;31.40;;;;;;5042653;28;20540;-67
2022/12/13 00:04:21;;;;;;;2.23;0.90;;;23.00;31.70;;;;;;5032445;28;20662;-68
2022/12/13 00:06:49;;;;;;;3.80;0.90;;;23.00;32.30;;;;;;5032592;28;20267;-68
2022/12/13 00:09:18;;;;;;;3.93;1.10;;;23.30;32.20;;;;;;5032299;28;20531;-66
2022/12/13 00:11:47;;;;;;;2.23;0.90;;;23.50;31.00;;;;;;5032640;28;20576;-67
2022/12/13 00:14:15;;;;;;;2.20;0.80;;;23.40;31.30;;;;;;5032596;28;20234;-67
2022/12/13 00:16:45;;;;;;;4.27;0.90;;;23.60;31.40;;;;;;5032717;28;20204;-68
2022/12/13 00:19:13;;;;;;;3.80;0.87;;;23.60;31.00;;;;;;5032240;28;20555;-68
2022/12/13 00:21:41;;;;;;;4.27;1.00;;;24.00;30.50;;;;;;5032132;28;20215;-67
2022/12/13 00:24:08;;;;;;;5.43;1.40;;;24.00;31.20;;;;;;5032052;28;20543;-68
2022/12/13 00:26:37;;;;;;;4.53;0.97;;;23.90;31.10;;;;;;5032221;28;20189;-66
2022/12/13 00:29:07;;;;;;;5.00;0.90;;;23.80;30.50;;;;;;5040460;28;20204;-67
2022/12/13 00:31:35;;;;;;;3.87;0.80;;;23.60;30.70;;;;;;5045807;28;20184;-65
2022/12/13 00:34:02;;;;;;;2.13;1.00;;;23.60;29.90;;;;;;5036694;28;20184;-66
2022/12/13 00:36:30;;;;;;;5.90;1.03;;;23.70;30.50;;;;;;5051569;28;20184;-67
2022/12/13 00:39:00;;;;;;;4.20;1.17;;;23.80;31.20;;;;;;5053724;28;20259;-66
2022/12/13 00:41:31;;;;;;;4.70;1.10;;;24.20;31.20;;;;;;5048916;28;20701;-67
2022/12/13 00:43:58;;;;;;;1.80;0.90;;;24.30;29.70;;;;;;5052994;28;20187;-66
2022/12/13 00:46:27;;;;;;;2.87;0.80;;;24.30;30.30;;;;;;5054487;28;20186;-67
2022/12/13 00:49:00;;;;;;;5.57;1.20;;;24.50;30.10;;;;;;5052237;28;20266;-67
2022/12/13 00:51:30;;;;;;;6.50;1.20;;;24.40;29.60;;;;;;5050291;28;20421;-66
2022/12/13 00:53:58;;;;;;;2.10;0.83;;;24.50;29.20;;;;;;5052917;28;20215;-65
2022/12/13 00:56:28;;;;;;;4.37;0.87;;;24.80;30.00;;;;;;5055142;28;20176;-66
2022/12/13 00:58:56;;;;;;;2.03;0.80;;;24.90;28.60;;;;;;5046699;28;20247;-66
2022/12/13 01:01:26;;;;;;;5.07;1.00;;;24.70;29.40;;;;;;5055101;28;20191;-66
2022/12/13 01:03:55;;;;;;;2.33;0.73;;;24.90;28.90;;;;;;5054875;28;20175;-65
2022/12/13 01:06:32;;;;;;;4.33;0.83;;;25.20;28.70;;;;;;5047895;28;20184;-66
2022/12/13 01:09:00;;;;;;;5.07;1.00;;;25.10;28.40;;;;;;5049201;28;20175;-66
2022/12/13 01:11:28;;;;;;;5.13;0.80;;;25.00;29.50;;;;;;5050016;28;20206;-66
2022/12/13 01:13:55;;;;;;;3.87;2.10;;;25.20;28.60;;;;;;5054337;28;20287;-68
2022/12/13 01:16:23;;;;;;;3.50;1.10;;;24.60;29.10;;;;;;5047833;28;20702;-66
2022/12/13 01:18:50;;;;;;;7.53;1.10;;;24.70;29.60;;;;;;5052670;28;20184;-68
2022/12/13 01:21:20;;;;;;;4.10;1.00;;;25.10;29.30;;;;;;5045136;28;20568;-68
2022/12/13 01:23:47;;;;;;;2.10;1.10;;;25.60;28.10;;;;;;5050529;28;20187;-67
2022/12/13 01:26:17;;;;;;;4.03;0.83;;;25.50;28.20;;;;;;5045588;28;20188;-68
2022/12/13 01:28:45;;;;;;;3.43;1.20;;;25.90;28.00;;;;;;5052653;28;20179;-65
2022/12/13 01:31:16;;;;;;;3.43;1.00;;;26.00;28.10;;;;;;5050112;28;20634;-66
2022/12/13 01:33:43;;;;;;;3.30;1.00;;;25.80;27.80;;;;;;5048789;28;20200;-67
2022/12/13 01:36:15;;;;;;;4.00;0.97;;;25.30;28.40;;;;;;5053479;28;20187;-68
2022/12/13 01:38:43;;;;;;;2.80;0.77;;;25.20;28.80;;;;;;5043165;28;20176;-68
2022/12/13 01:41:15;;;;;;;4.90;1.30;;;25.40;28.50;;;;;;5051519;28;20538;-68
2022/12/13 01:43:42;;;;;;;4.03;1.10;;;25.90;28.60;;;;;;5049504;28;20175;-68
2022/12/13 01:46:14;;;;;;;2.13;0.77;;;26.00;27.80;;;;;;5045737;28;20796;-69
2022/12/13 01:48:51;;;;;;;5.93;1.43;;;25.60;28.50;;;;;;5050539;28;20233;-68
2022/12/13 01:51:24;;;;;;;1.80;0.90;;;25.90;27.80;;;;;;5039485;28;20192;-68
2022/12/13 01:53:54;;;;;;;2.63;1.00;;;26.20;27.00;;;;;;5034732;28;20279;-66
2022/12/13 01:56:29;;;;;;;2.63;1.00;;;26.50;26.90;;;;;;5034948;28;20180;-66
2022/12/13 01:58:58;;;;;;;3.73;1.03;;;26.40;27.60;;;;;;5036499;28;20184;-66
2022/12/13 02:01:27;;;;;;;1.63;0.60;;;26.90;27.30;;;;;;5039054;28;20183;-66
2022/12/13 02:03:54;;;;;;;4.13;1.03;;;26.80;26.70;;;;;;5034913;28;20173;-67
2022/12/13 02:06:45;;;;;;;3.77;1.30;;;26.10;29.10;;;;;;5034773;28;20184;-67
2022/12/13 02:09:13;;;;;;;4.53;0.90;;;26.20;29.40;;;;;;5032394;28;20215;-66
2022/12/13 02:11:43;;;;;;;5.00;1.20;;;26.30;29.60;;;;;;5054550;28;20258;-67
2022/12/13 02:14:11;;;;;;;7.33;2.90;;;26.90;28.30;;;;;;5052168;28;20187;-67
2022/12/13 02:16:51;;;;;;;3.63;1.00;;;26.40;29.50;;;;;;5054498;28;20180;-67
2022/12/13 02:19:43;;;;;;;3.77;1.07;;;26.30;29.90;;;;;;5054318;28;20172;-67
2022/12/13 02:22:39;;;;;;;5.03;1.20;;;26.40;31.30;;;;;;5043614;28;20592;-67
2022/12/13 02:25:40;;;;;;;3.40;1.20;;;27.20;31.10;;;;;;5054022;28;20211;-67
2022/12/13 02:28:39;;;;;;;5.70;1.27;;;26.50;31.00;;;;;;5053893;28;20274;-67
2022/12/13 02:31:16;;;;;;;2.97;1.30;;;26.80;30.90;;;;;;5054120;28;20230;-67
2022/12/13 02:34:24;;;;;;;3.87;1.20;;;26.80;31.50;;;;;;5043310;28;20180;-67
2022/12/13 02:36:54;;;;;;;9.20;7.07;;;26.70;31.30;;;;;;5047319;28;20184;-67
2022/12/13 02:39:32;;;;;;;5.63;1.93;;;26.50;31.10;;;;;;5053327;28;20232;-67
2022/12/13 02:42:15;;;;;;;3.63;1.43;;;27.00;30.70;;;;;;5051715;28;20274;-68
2022/12/13 02:44:50;;;;;;;3.93;1.20;;;27.70;30.40;;;;;;5045917;28;20180;-67
2022/12/13 02:47:23;;;;;;;5.63;1.40;;;26.90;29.90;;;;;;5038844;28;20219;-67
2022/12/13 02:49:57;;;;;;;3.43;0.87;;;27.10;29.40;;;;;;5051144;28;20211;-68
2022/12/13 02:52:27;;;;;;;5.83;1.10;;;27.30;29.50;;;;;;5033646;28;20242;-67
2022/12/13 02:54:55;;;;;;;5.20;0.97;;;27.30;29.00;;;;;;5034323;28;20517;-67
2022/12/13 02:57:36;;;;;;;5.03;1.10;;;27.80;28.00;;;;;;5037603;28;20241;-69
2022/12/13 03:00:20;;;;;;;5.10;0.93;;;27.80;28.50;;;;;;5048597;28;20176;-67
2022/12/13 03:02:50;;;;;;;4.10;1.10;;;27.90;26.40;;;;;;5052135;28;20244;-67
2022/12/13 03:08:47;;;;;;;3.93;1.03;;;28.10;27.90;;;;;;5035392;28;20186;-66
2022/12/13 03:11:17;;;;;;;5.33;1.40;;;28.30;27.80;;;;;;5050465;28;20602;-66
2022/12/13 03:14:00;;;;;;;3.73;1.00;;;28.40;28.90;;;;;;5049424;28;21714;-66
2022/12/13 03:16:40;;;;;;;3.47;1.00;;;28.10;29.10;;;;;;5050980;28;20180;-67
2022/12/13 03:19:10;;;;;;;5.73;1.10;;;28.00;28.40;;;;;;5041145;28;20188;-68
2022/12/13 03:21:47;;;;;;;6.87;1.00;;;28.20;28.90;;;;;;5052538;28;20187;-67
2022/12/13 03:24:17;;;;;;;4.87;1.40;;;28.00;29.30;;;;;;5041879;28;20637;-68
2022/12/13 03:26:45;;;;;;;2.23;0.90;;;28.80;28.40;;;;;;5051211;28;20641;-67
2022/12/13 03:29:13;;;;;;;3.80;1.00;;;28.00;29.60;;;;;;5043102;28;20297;-68
2022/12/13 03:31:41;;;;;;;6.50;0.83;;;27.30;31.70;;;;;;5049109;28;20288;-69
2022/12/13 03:34:08;;;;;;;3.53;0.90;;;27.40;33.30;;;;;;5048661;28;20188;-67
2022/12/13 03:36:35;;;;;;;4.70;1.10;;;27.90;32.20;;;;;;5044543;28;20257;-68
2022/12/13 03:39:03;;;;;;;6.43;1.30;;;27.90;32.20;;;;;;5043784;28;20184;-67
2022/12/13 03:41:31;;;;;;;5.53;1.10;;;27.80;33.10;;;;;;5040230;28;20187;-66
2022/12/13 03:44:06;;;;;;;2.77;0.80;;;27.90;33.00;;;;;;5041987;28;20179;-67
2022/12/13 03:46:35;;;;;;;3.23;1.03;;;27.30;33.50;;;;;;5040309;28;20185;-68
2022/12/13 03:49:02;;;;;;;8.83;1.00;;;27.10;33.80;;;;;;5043254;28;20180;-67
2022/12/13 03:51:30;;;;;;;2.63;1.03;;;27.10;33.50;;;;;;5048679;28;20180;-66
2022/12/13 03:53:57;;;;;;;2.53;0.83;;;27.80;33.00;;;;;;5044833;28;20667;-67
2022/12/13 03:56:25;;;;;;;2.70;0.87;;;27.50;33.90;;;;;;5045934;28;20180;-67
2022/12/13 03:58:52;;;;;;;4.50;0.97;;;27.00;34.30;;;;;;5034232;28;20239;-67
2022/12/13 04:01:20;;;;;;;3.97;0.80;;;27.30;34.70;;;;;;5048340;28;20603;-67
2022/12/13 04:03:48;;;;;;;3.47;0.93;;;27.20;35.00;;;;;;5038105;28;20639;-67
2022/12/13 04:06:16;;;;;;;4.57;1.13;;;28.40;32.50;;;;;;5045291;28;20287;-68
2022/12/13 04:08:43;;;;;;;3.60;1.20;;;28.20;32.90;;;;;;5038223;28;20238;-69
2022/12/13 04:13:56;;;;;;;3.97;0.87;;;28.30;31.90;;;;;;5048614;28;20606;-68
2022/12/13 04:16:24;;;;;;;4.13;0.90;;;28.10;32.10;;;;;;5032081;28;20197;-66
2022/12/13 04:18:51;;;;;;;2.90;0.80;;;27.70;32.00;;;;;;5047297;28;20282;-65
2022/12/13 04:21:19;;;;;;;3.13;1.17;;;27.40;33.30;;;;;;5048018;28;20286;-66
2022/12/13 04:23:46;;;;;;;2.10;0.97;;;27.30;33.00;;;;;;5035241;28;20196;-67
2022/12/13 04:26:14;;;;;;;3.53;1.00;;;27.40;33.90;;;;;;5048616;28;20706;-67
2022/12/13 04:28:41;;;;;;;6.30;0.80;;;27.30;33.30;;;;;;5049693;28;20275;-67
2022/12/13 04:31:09;;;;;;;1.77;0.80;;;27.60;32.90;;;;;;5045774;28;20304;-67
2022/12/13 04:33:36;;;;;;;1.83;0.70;;;27.80;32.10;;;;;;5045510;28;20186;-68
2022/12/13 04:36:04;;;;;;;5.77;0.90;;;27.80;32.40;;;;;;5045838;28;20192;-68
2022/12/13 04:38:32;;;;;;;6.10;0.90;;;27.60;31.80;;;;;;5047632;28;20262;-67
2022/12/13 04:41:16;;;;;;;1.50;0.90;;;27.00;32.50;;;;;;5043856;28;20277;-69
2022/12/13 04:43:49;;;;;;;4.40;1.00;;;27.00;33.30;;;;;;5035173;28;20552;-69
2022/12/13 04:46:16;;;;;;;4.50;0.90;;;27.10;32.70;;;;;;5043319;28;20181;-68
2022/12/13 04:48:44;;;;;;;4.30;1.00;;;27.10;32.60;;;;;;5038523;28;20314;-68
2022/12/13 04:51:11;;;;;;;1.07;0.67;;;27.80;31.70;;;;;;5045146;28;20213;-67
2022/12/13 04:53:39;;;;;;;2.87;0.60;;;27.60;32.20;;;;;;5036397;28;20642;-66
2022/12/13 04:56:07;;;;;;;3.87;0.77;;;27.90;32.50;;;;;;5034421;28;20242;-67
2022/12/13 04:58:34;;;;;;;4.93;0.87;;;28.10;31.70;;;;;;5035724;28;20180;-67
2022/12/13 05:01:01;;;;;;;2.17;0.60;;;28.60;30.80;;;;;;5036989;28;20185;-67
2022/12/13 05:03:29;;;;;;;4.30;0.87;;;28.50;30.40;;;;;;5048853;28;20200;-67
2022/12/13 05:05:56;;;;;;;2.53;0.70;;;28.00;31.50;;;;;;5045378;28;20260;-67
2022/12/13 05:08:23;;;;;;;4.00;0.67;;;27.90;32.30;;;;;;5038481;28;20192;-68
2022/12/13 05:10:51;;;;;;;2.30;0.70;;;28.30;31.30;;;;;;5050598;28;20219;-67
2022/12/13 05:13:18;;;;;;;3.40;1.00;;;27.60;32.40;;;;;;5036077;28;20196;-67
2022/12/13 05:15:46;;;;;;;5.20;0.70;;;28.20;32.30;;;;;;5049111;28;20213;-67
2022/12/13 05:18:13;;;;;;;1.83;0.73;;;28.90;31.50;;;;;;5042498;28;20180;-66
2022/12/13 05:20:40;;;;;;;2.63;0.90;;;29.30;31.60;;;;;;5051554;28;20227;-68
2022/12/13 05:23:08;;;;;;;2.57;1.00;;;29.80;31.40;;;;;;5038421;28;20291;-67
2022/12/13 05:25:35;;;;;;;3.80;0.90;;;28.10;33.30;;;;;;5053577;28;20655;-66
2022/12/13 05:28:03;;;;;;;1.87;0.63;;;27.80;34.30;;;;;;5053070;28;20179;-66
2022/12/13 05:30:31;;;;;;;6.77;1.10;;;29.10;33.00;;;;;;5045875;28;20220;-66
2022/12/13 05:32:58;;;;;;;6.50;1.20;;;28.80;32.80;;;;;;5048365;28;20180;-66
2022/12/13 05:35:25;;;;;;;2.77;0.90;;;29.20;32.40;;;;;;5037324;28;20223;-67
2022/12/13 05:37:53;;;;;;;1.83;0.80;;;29.90;31.50;;;;;;5036553;28;20181;-68
2022/12/13 05:40:21;;;;;;;1.60;0.75;;;29.90;31.10;;;;;;5053119;28;20266;-67
2022/12/13 05:42:49;;;;;;;3.25;0.90;;;29.90;31.20;;;;;;5051574;28;20226;-69
2022/12/13 05:45:17;;;;;;;3.90;0.82;;;28.90;33.20;;;;;;5034868;28;20185;-67
2022/12/13 05:47:45;;;;;;;3.72;0.90;;;28.50;34.10;;;;;;5041039;28;20642;-67
2022/12/13 05:50:14;;;;;;;2.23;0.80;;;28.70;33.90;;;;;;5041257;28;20239;-66
2022/12/13 05:52:43;;;;;;;6.23;0.90;;;29.30;33.40;;;;;;5038515;28;20189;-67
2022/12/13 05:55:11;;;;;;;2.67;0.90;;;29.20;32.90;;;;;;5034785;28;20188;-68
2022/12/13 05:57:39;;;;;;;3.00;0.80;;;29.50;33.10;;;;;;5037969;28;20184;-68
2022/12/13 06:00:09;;;;;;;6.13;1.00;;;29.30;32.20;;;;;;5043810;28;20231;-66
2022/12/13 06:02:40;;;;;;;3.90;1.00;;;29.30;32.70;;;;;;5050146;28;20581;-66
2022/12/13 06:05:11;;;;;;;2.53;0.80;;;29.50;31.80;;;;;;5054570;28;20187;-68
2022/12/13 06:07:39;;;;;;;5.30;0.95;;;30.40;30.30;;;;;;5054455;28;20179;-67
2022/12/13 06:10:07;;;;;;;2.78;1.00;;;29.50;31.60;;;;;;5052613;28;20577;-66
2022/12/13 06:12:36;;;;;;;2.70;0.80;;;29.60;31.70;;;;;;5053668;28;20227;-68
2022/12/13 06:15:04;;;;;;;3.15;0.90;;;29.60;31.40;;;;;;5054564;28;20330;-67
2022/12/13 06:17:36;;;;;;;2.43;0.63;;;28.50;32.10;;;;;;5050262;28;20211;-68
2022/12/13 06:20:08;;;;;;;3.05;1.00;;;28.40;31.60;;;;;;5051920;28;20191;-67
2022/12/13 06:22:35;;;;;;;5.20;0.93;;;28.30;31.80;;;;;;5047135;28;20186;-67
2022/12/13 06:25:02;;;;;;;2.20;0.80;;;28.10;32.30;;;;;;5047417;28;20268;-67
2022/12/13 06:27:30;;;;;;;5.45;0.93;;;27.90;33.00;;;;;;5052505;28;20639;-66
2022/12/13 06:29:57;;;;;;;7.93;0.80;;;28.00;33.40;;;;;;5045578;28;20296;-67
2022/12/13 06:32:24;;;;;;;2.30;0.77;;;27.80;33.50;;;;;;5053383;28;20187;-67
2022/12/13 06:34:52;;;;;;;4.13;0.80;;;27.60;34.90;;;;;;5054012;28;20274;-66
2022/12/13 06:37:19;;;;;;;4.37;0.90;;;28.20;34.50;;;;;;5053193;28;20180;-66
2022/12/13 06:39:47;;;;;;;3.00;0.90;;;28.30;34.60;;;;;;5048013;28;20186;-67
2022/12/13 06:42:17;;;;;;;3.13;1.00;;;27.70;35.20;;;;;;5052942;28;20666;-67
2022/12/13 06:44:45;;;;;;;4.53;0.90;;;27.40;36.00;;;;;;5049553;28;20589;-68
2022/12/13 06:47:12;;;;;;;3.03;0.93;;;27.00;36.90;;;;;;5041463;28;20291;-68
2022/12/13 06:49:42;;;;;;;4.63;0.90;;;27.50;36.50;;;;;;5051911;28;20200;-67
2022/12/13 06:52:11;;;;;;;5.73;1.20;;;28.30;34.80;;;;;;5050630;28;20508;-66
2022/12/13 06:54:39;;;;;;;3.20;0.77;;;28.30;34.80;;;;;;5052162;28;20188;-69
2022/12/13 06:57:06;;;;;;;2.23;1.10;;;28.10;35.40;;;;;;5052980;28;20267;-68
2022/12/13 06:59:34;;;;;;;4.77;1.07;;;27.70;36.20;;;;;;5052590;28;20187;-68
2022/12/13 07:02:01;;;;;;;3.80;1.07;;;28.30;36.10;;;;;;5044589;28;20562;-67
2022/12/13 07:04:29;;;;;;;3.63;0.93;;;28.10;36.70;;;;;;5050657;28;20183;-67
2022/12/13 07:06:56;;;;;;;4.30;0.87;;;27.30;38.40;;;;;;5051310;28;20188;-68
2022/12/13 07:09:24;;;;;;;2.97;1.27;;;28.00;37.40;;;;;;5039402;28;20294;-67
2022/12/13 07:11:51;;;;;;;5.17;1.17;;;27.70;37.80;;;;;;5051534;28;20672;-67
2022/12/13 07:14:19;;;;;;;4.87;0.90;;;27.40;38.90;;;;;;5052360;28;20187;-65
2022/12/13 07:16:46;;;;;;;4.03;0.80;;;26.50;41.00;;;;;;5052281;28;20262;-67
2022/12/13 07:19:14;;;;;;;6.30;1.07;;;26.00;42.50;;;;;;5052691;28;20172;-66
2022/12/13 07:21:41;;;;;;;3.13;1.10;;;25.80;42.80;;;;;;5045496;28;20192;-66
2022/12/13 07:24:08;;;;;;;7.37;1.57;;;25.30;43.50;;;;;;5049760;28;20642;-65
2022/12/13 07:26:36;;;;;;;2.70;1.10;;;25.60;43.30;;;;;;5052613;28;20187;-67
2022/12/13 07:29:04;;;;;;;8.20;1.60;;;25.40;43.60;;;;;;5052655;28;20207;-66
2022/12/13 07:31:36;;;;;;;4.27;1.20;;;25.30;44.10;;;;;;5051336;28;20180;-65
2022/12/13 07:34:03;;;;;;;6.40;1.20;;;25.30;43.30;;;;;;5052806;28;20176;-67
2022/12/13 07:36:31;;;;;;;2.60;0.90;;;24.80;44.40;;;;;;5051502;28;20263;-66
2022/12/13 07:38:58;;;;;;;4.00;0.97;;;24.30;46.20;;;;;;5051998;28;20188;-66
2022/12/13 07:41:26;;;;;;;2.70;1.03;;;24.30;46.90;;;;;;5043522;28;20187;-67
2022/12/13 07:43:55;;;;;;;11.87;1.10;;;23.80;47.80;;;;;;5052760;28;20176;-67
2022/12/13 07:46:23;;;;;;;4.77;1.00;;;23.60;46.90;;;;;;5047127;28;20317;-67
2022/12/13 07:48:51;;;;;;;4.73;1.10;;;23.60;47.70;;;;;;5044914;28;20231;-67
2022/12/13 07:51:18;;;;;;;4.93;1.10;;;23.50;48.70;;;;;;5045039;28;20211;-67
2022/12/13 07:53:45;;;;;;;4.90;0.90;;;23.60;47.50;;;;;;5051749;28;20180;-67
2022/12/13 07:56:13;;;;;;;4.00;1.20;;;23.40;49.50;;;;;;5052515;28;20195;-66
2022/12/13 07:58:44;;;;;;;3.67;1.13;;;23.30;48.40;;;;;;5047498;28;20259;-67
2022/12/13 08:01:12;;;;;;;4.37;1.00;;;23.20;48.90;;;;;;5050365;28;20194;-66
2022/12/13 08:03:39;;;;;;;8.17;1.13;;;22.80;49.80;;;;;;5052471;28;20661;-70
2022/12/13 08:06:09;;;;;;;12.60;1.30;;;22.80;51.00;;;;;;5047703;28;20601;-69
2022/12/13 08:08:38;;;;;;;6.23;1.20;;;22.70;51.90;;;;;;5051900;28;20175;-67
2022/12/13 08:11:10;;;;;;;6.87;1.43;;;22.50;52.90;;;;;;5051741;28;20208;-66
2022/12/13 08:13:39;;;;;;;5.07;1.37;;;22.70;53.30;;;;;;5050125;28;20176;-68
2022/12/13 08:16:09;;;;;;;5.67;1.27;;;22.30;53.60;;;;;;5049107;28;20267;-67
2022/12/13 08:18:38;;;;;;;8.07;1.60;;;22.30;54.10;;;;;;5050640;28;20183;-67
2022/12/13 08:21:10;;;;;;;6.07;1.40;;;22.20;54.70;;;;;;5052399;28;20258;-67
2022/12/13 08:23:38;;;;;;;7.70;1.30;;;22.00;54.80;;;;;;5049939;28;20184;-66
2022/12/13 08:26:06;;;;;;;6.17;1.20;;;22.00;53.70;;;;;;5045626;28;20251;-66
2022/12/13 08:28:35;;;;;;;7.23;1.43;;;21.90;54.50;;;;;;5052086;28;20175;-68
2022/12/13 08:31:06;;;;;;;6.47;1.30;;;21.90;55.50;;;;;;5051492;28;20713;-70
2022/12/13 08:33:34;;;;;;;2.13;0.83;;;21.80;55.00;;;;;;5040630;28;20187;-67
2022/12/13 08:36:14;;;;;;;6.37;1.20;;;21.80;55.30;;;;;;5043392;28;20242;-66
2022/12/13 08:38:42;;;;;;;5.97;1.13;;;21.80;55.80;;;;;;5048639;28;20270;-67
2022/12/13 08:41:09;;;;;;;3.77;1.00;;;21.80;55.90;;;;;;5047672;28;20702;-66
2022/12/13 08:43:37;;;;;;;7.80;1.40;;;21.80;56.00;;;;;;5051981;28;20238;-67
2022/12/13 08:46:05;;;;;;;6.47;1.10;;;21.90;55.80;;;;;;5046582;28;20187;-66
2022/12/13 08:48:33;;;;;;;7.43;0.83;;;21.90;56.00;;;;;;5046346;28;20310;-67
2022/12/13 08:51:06;;;;;;;5.47;1.13;;;21.80;56.20;;;;;;5043506;28;20651;-67
2022/12/13 08:53:34;;;;;;;5.93;1.20;;;21.70;55.90;;;;;;5045353;28;20188;-67
2022/12/13 08:56:03;;;;;;;6.73;1.07;;;21.70;56.20;;;;;;5051237;28;20192;-68
2022/12/13 08:58:31;;;;;;;5.93;1.20;;;21.70;56.20;;;;;;5039023;28;20275;-66
2022/12/13 09:00:58;;;;;;;6.73;1.23;;;21.60;56.80;;;;;;5049133;28;20206;-66
2022/12/13 09:03:27;;;;;;;3.33;1.10;;;21.50;56.90;;;;;;5048712;28;20168;-67
2022/12/13 09:05:54;;;;;;;6.83;1.30;;;21.50;57.00;;;;;;5051702;28;20191;-68
2022/12/13 09:08:22;;;;;;;4.33;1.63;;;21.30;56.80;;;;;;5053969;28;20642;-68
2022/12/13 09:11:00;;;;;;;4.83;1.23;;;21.20;57.00;;;;;;5042620;28;20744;-67
2022/12/13 09:13:33;;;;;;;8.93;1.77;;;21.20;57.30;;;;;;5049695;28;20531;-66
2022/12/13 09:16:05;;;;;;;8.33;1.20;;;21.30;57.10;;;;;;5046083;28;20560;-66
2022/12/13 09:18:32;;;;;;;6.43;1.20;;;21.40;57.30;;;;;;5055160;28;20664;-66
2022/12/13 09:21:00;;;;;;;4.70;1.40;;;21.30;57.70;;;;;;5051348;28;20245;-66
2022/12/13 09:23:27;;;;;;;3.87;1.07;;;21.30;58.10;;;;;;5050663;28;20267;-66
2022/12/13 09:25:57;;;;;;;7.33;1.63;;;21.30;58.10;;;;;;5046618;28;20183;-67
2022/12/13 09:28:25;;;;;;;7.40;1.33;;;21.30;59.10;;;;;;5047809;28;20655;-67
2022/12/13 09:30:52;;;;;;;7.40;1.50;;;21.30;58.80;;;;;;5039380;28;20220;-66
2022/12/13 09:33:20;;;;;;;8.00;1.30;;;21.20;59.00;;;;;;5024844;28;20192;-67
2022/12/13 09:35:47;;;;;;;10.23;1.93;;;21.20;59.20;;;;;;5032435;28;20248;-67
2022/12/13 09:38:15;;;;;;;6.30;1.53;;;21.30;59.00;;;;;;5037500;28;20221;-67
2022/12/13 09:40:45;;;;;;;5.57;1.60;;;21.20;58.10;;;;;;5046798;28;20196;-65
2022/12/13 09:43:27;;;;;;;10.80;1.70;;;21.20;57.70;;;;;;5047469;28;20184;-66
2022/12/13 09:45:54;;;;;;;8.30;1.73;;;21.10;57.50;;;;;;5053268;28;20189;-67
2022/12/13 09:48:22;;;;;;;4.43;1.40;;;21.00;57.90;;;;;;5054175;28;20306;-67
2022/12/13 09:50:51;;;;;;;4.00;1.27;;;20.90;58.50;;;;;;5044827;28;20613;-67
2022/12/13 09:53:20;;;;;;;7.83;1.70;;;20.90;58.70;;;;;;5049644;28;20181;-67
2022/12/13 09:55:51;;;;;;;10.73;1.60;;;21.20;57.90;;;;;;5051331;28;20184;-67
2022/12/13 09:58:27;;;;;;;7.20;1.60;;;21.10;58.40;;;;;;5039177;28;20176;-67
2022/12/13 10:00:55;;;;;;;5.53;1.30;;;21.10;58.30;;;;;;5046806;28;20183;-66
2022/12/13 10:03:24;;;;;;;7.43;1.40;;;21.10;58.60;;;;;;5039887;28;20183;-66
2022/12/13 10:05:57;;;;;;;14.27;2.07;;;21.00;59.10;;;;;;5048359;28;20263;-66
2022/12/13 10:08:36;;;;;;;10.73;1.50;;;21.10;59.20;;;;;;5053457;28;20263;-66
2022/12/13 10:11:04;;;;;;;8.87;1.47;;;21.00;59.50;;;;;;5047346;28;20211;-67
2022/12/13 10:13:55;;;;;;;6.50;1.60;;;21.10;59.70;;;;;;5045482;28;20191;-66
2022/12/13 10:16:34;;;;;;;10.17;1.87;;;21.00;60.00;;;;;;5042634;28;20191;-67
2022/12/13 10:19:39;;;;;;;8.73;1.97;;;20.90;60.70;;;;;;5042657;28;20646;-66
2022/12/13 10:22:15;;;;;;;14.37;2.23;;;20.80;60.60;;;;;;5047316;28;20195;-66
2022/12/13 10:25:05;;;;;;;9.43;1.70;;;20.90;60.50;;;;;;5050987;28;20253;-67
2022/12/13 10:27:42;;;;;;;7.63;1.50;;;21.00;60.30;;;;;;5045952;28;20181;-66
2022/12/13 10:30:13;;;;;;;7.67;1.80;;;21.00;59.90;;;;;;5051016;28;20222;-66
2022/12/13 10:32:55;;;;;;;8.40;1.73;;;20.90;60.20;;;;;;5043160;28;20189;-66
2022/12/13 10:35:33;;;;;;;11.70;1.80;;;20.90;60.20;;;;;;5046347;28;20671;-68
2022/12/13 10:38:26;;;;;;;7.93;1.73;;;20.90;60.20;;;;;;5045100;28;20183;-69
2022/12/13 10:40:54;;;;;;;6.53;1.60;;;20.80;59.90;;;;;;5044136;28;20646;-67
2022/12/13 10:43:24;;;;;;;10.67;1.80;;;20.70;60.20;;;;;;5051916;28;20188;-68
2022/12/13 10:45:58;;;;;;;10.93;2.00;;;20.70;60.40;;;;;;5051949;28;20642;-66
2022/12/13 10:48:31;;;;;;;13.10;1.90;;;20.60;60.30;;;;;;5044858;28;20230;-69
2022/12/13 10:51:09;;;;;;;6.50;1.57;;;20.80;59.80;;;;;;5050750;28;20262;-66
2022/12/13 10:53:46;;;;;;;7.27;2.13;;;20.90;58.80;;;;;;5052378;28;20242;-66
2022/12/13 10:56:15;;;;;;;8.30;1.43;;;20.90;58.60;;;;;;5053007;28;20228;-67
2022/12/13 10:58:48;;;;;;;8.73;1.70;;;20.90;58.90;;;;;;5053852;28;20650;-67
2022/12/13 11:01:20;;;;;;;12.00;2.20;;;21.00;58.50;;;;;;5052912;28;20249;-69
2022/12/13 11:04:05;;;;;;;8.73;1.77;;;20.90;58.50;;;;;;5053540;28;20172;-66
2022/12/13 11:06:44;;;;;;;6.10;1.53;;;20.60;58.90;;;;;;5044609;28;20180;-67
2022/12/13 11:09:31;;;;;;;8.43;1.70;;;20.50;59.50;;;;;;5052488;28;20195;-67
2022/12/13 11:12:02;;;;;;;8.67;1.80;;;20.40;59.90;;;;;;5051960;28;20199;-66
2022/12/13 11:14:39;;;;;;;6.57;1.83;;;20.50;60.00;;;;;;5052587;28;20222;-69
2022/12/13 11:17:17;;;;;;;5.27;1.40;;;20.50;59.70;;;;;;5041241;28;20190;-67
2022/12/13 11:19:56;;;;;;;6.67;1.53;;;20.60;59.00;;;;;;5053134;28;20279;-67
2022/12/13 11:22:30;;;;;;;9.67;1.70;;;20.60;58.90;;;;;;5051003;28;20183;-68
2022/12/13 11:25:24;;;;;;;7.40;1.47;;;20.70;59.20;;;;;;5052533;28;20207;-69
2022/12/13 11:28:04;;;;;;;7.30;1.47;;;20.50;59.60;;;;;;5052228;28;20191;-67
2022/12/13 11:30:49;;;;;;;7.60;1.37;;;20.30;60.20;;;;;;5052352;28;20219;-68
2022/12/13 11:33:50;;;;;;;6.80;1.23;;;20.30;60.70;;;;;;5053172;28;20193;-69
2022/12/13 11:36:39;;;;;;;15.10;1.93;;;20.30;59.60;;;;;;5050699;28;20186;-66
2022/12/13 11:39:20;;;;;;;7.60;1.23;;;20.40;59.30;;;;;;5048456;28;20184;-66
2022/12/13 11:42:08;;;;;;;8.40;1.43;;;20.60;59.00;;;;;;5049276;28;20196;-66
2022/12/13 11:45:20;;;;;;;13.20;1.83;;;20.60;58.80;;;;;;5051778;28;20180;-66
2022/12/13 11:48:05;;;;;;;8.93;2.07;;;20.40;59.30;;;;;;5043545;28;20283;-66
2022/12/13 11:50:42;;;;;;;8.77;1.73;;;20.30;60.50;;;;;;5051590;28;20239;-66
2022/12/13 11:53:28;;;;;;;8.40;2.23;;;20.20;60.70;;;;;;5047099;28;20222;-66
2022/12/13 11:56:22;;;;;;;4.80;1.70;;;20.30;60.60;;;;;;5051560;28;20199;-68
2022/12/13 11:59:32;;;;;;;7.63;1.93;;;20.30;60.20;;;;;;5042884;28;21895;-67
2022/12/13 12:02:30;;;;;;;12.10;1.90;;;20.40;59.70;;;;;;5041920;28;20195;-66
2022/12/13 12:05:19;;;;;;;9.70;1.80;;;20.30;59.90;;;;;;5047094;28;20263;-68
2022/12/13 12:07:53;;;;;;;7.47;1.60;;;20.00;60.40;;;;;;5048369;28;20179;-69
2022/12/13 12:10:30;;;;;;;6.10;1.80;;;20.00;60.40;;;;;;5052042;28;20568;-69
2022/12/13 12:13:24;;;;;;;6.57;2.00;;;20.20;60.10;;;;;;5049745;28;20175;-68
2022/12/13 12:16:02;;;;;;;15.80;2.13;;;20.10;60.40;;;;;;5051421;28;20546;-67
2022/12/13 12:18:29;;;;;;;11.37;1.80;;;20.20;60.40;;;;;;5052010;28;20175;-68
2022/12/13 12:21:11;;;;;;;9.27;1.77;;;20.00;60.40;;;;;;5051186;28;20203;-68
2022/12/13 12:24:07;;;;;;;13.93;2.33;;;19.80;61.30;;;;;;5052065;28;20668;-68
2022/12/13 12:26:54;;;;;;;8.30;1.77;;;19.70;62.10;;;;;;5058885;28;20191;-69
2022/12/13 12:29:56;;;;;;;5.83;1.70;;;19.50;62.90;;;;;;5051543;28;20706;-67
2022/12/13 12:32:31;;;;;;;9.07;2.03;;;19.40;63.90;;;;;;5052411;28;20236;-69
2022/12/13 12:35:29;;;;;;;6.53;1.40;;;19.50;63.70;;;;;;5054557;28;20210;-69
2022/12/13 12:38:21;;;;;;;8.93;1.67;;;19.50;63.60;;;;;;5048132;28;20729;-68
2022/12/13 12:41:22;;;;;;;9.40;1.60;;;19.30;64.50;;;;;;5053733;28;22191;-67
2022/12/13 12:44:13;;;;;;;10.07;1.57;;;19.30;64.70;;;;;;5052910;28;20267;-68
2022/12/13 12:47:05;;;;;;;8.63;1.63;;;19.20;64.70;;;;;;5056332;28;20263;-68
2022/12/13 12:49:58;;;;;;;6.77;1.87;;;19.30;64.50;;;;;;5055302;28;20204;-67
2022/12/13 12:53:02;;;;;;;8.97;1.97;;;19.20;65.00;;;;;;5048554;28;20220;-67
2022/12/13 12:55:54;;;;;;;5.10;1.50;;;19.10;65.60;;;;;;5049285;28;20202;-67
2022/12/13 12:58:37;;;;;;;7.13;1.83;;;18.90;66.20;;;;;;5047192;28;20783;-66
2022/12/13 13:01:13;;;;;;;12.33;1.90;;;18.90;66.70;;;;;;5047013;28;20189;-66
2022/12/13 13:03:43;;;;;;;6.40;1.40;;;18.90;66.60;;;;;;5037185;28;20202;-66
2022/12/13 13:06:18;;;;;;;10.37;1.67;;;19.00;66.30;;;;;;5052322;28;20184;-67
2022/12/13 13:08:57;;;;;;;6.93;2.10;;;19.00;66.10;;;;;;5054501;28;20233;-66
2022/12/13 13:11:33;;;;;;;7.47;1.80;;;18.80;66.50;;;;;;5055213;28;20207;-66
2022/12/13 13:14:05;;;;;;;7.40;2.30;;;18.80;66.90;;;;;;5044053;28;20884;-66
2022/12/13 13:16:38;;;;;;;8.43;1.63;;;18.80;67.10;;;;;;5050681;28;20974;-67
2022/12/13 13:19:12;;;;;;;7.53;1.53;;;18.80;67.40;;;;;;5055769;28;20172;-67
2022/12/13 13:21:48;;;;;;;8.90;2.00;;;18.80;67.30;;;;;;5054556;28;20266;-67